createdAt,value
2023-04-28T00:00:06.367Z,2.22
2023-04-28T00:02:34.346Z,2.50
2023-04-28T00:05:02.178Z,2.40
2023-04-28T00:07:29.618Z,2.50
2023-04-28T00:09:57.328Z,2.60
2023-04-28T00:12:24.767Z,2.33
2023-04-28T00:14:52.126Z,3.13
2023-04-28T00:17:19.430Z,2.85
2023-04-28T00:19:46.780Z,3.08
2023-04-28T00:22:15.208Z,2.53
2023-04-28T00:24:42.553Z,2.90
2023-04-28T00:27:10.412Z,2.63
2023-04-28T00:29:37.929Z,2.58
2023-04-28T00:32:06.700Z,2.40
2023-04-28T00:34:37.335Z,2.28
2023-04-28T00:37:04.873Z,2.50
2023-04-28T00:39:32.214Z,2.80
2023-04-28T00:41:59.624Z,2.20
2023-04-28T00:44:28.884Z,2.42
2023-04-28T00:46:57.698Z,2.53
2023-04-28T00:49:26.041Z,2.50
2023-04-28T00:51:53.535Z,2.63
2023-04-28T00:54:21.085Z,1.70
2023-04-28T00:56:49.030Z,1.48
2023-04-28T00:59:16.533Z,1.20
2023-04-28T01:01:44.326Z,1.50
2023-04-28T01:04:12.109Z,1.35
2023-04-28T01:06:43.966Z,1.38
2023-04-28T01:09:11.320Z,1.42
2023-04-28T01:11:38.933Z,1.45
2023-04-28T01:14:11.344Z,1.55
2023-04-28T01:16:41.449Z,1.70
2023-04-28T01:19:16.970Z,2.05
2023-04-28T01:21:44.747Z,2.50
2023-04-28T01:24:22.373Z,4.10
2023-04-28T01:26:50.903Z,5.80
2023-04-28T01:29:18.278Z,6.78
2023-04-28T01:31:45.783Z,7.10
2023-04-28T01:34:13.282Z,5.13
2023-04-28T01:36:42.854Z,2.95
2023-04-28T01:39:19.885Z,3.30
2023-04-28T01:41:47.226Z,3.30
2023-04-28T01:44:14.890Z,2.25
2023-04-28T01:46:42.559Z,2.10
2023-04-28T01:49:09.935Z,1.73
2023-04-28T01:51:37.387Z,1.70
2023-04-28T01:54:05.584Z,1.73
2023-04-28T01:56:32.944Z,1.80
2023-04-28T01:59:00.840Z,2.42
2023-04-28T02:01:28.353Z,1.73
2023-04-28T02:03:56.384Z,1.42
2023-04-28T02:06:24.615Z,2.17
2023-04-28T02:08:52.006Z,2.50
2023-04-28T02:11:19.389Z,2.78
2023-04-28T02:13:47.128Z,2.10
2023-04-28T02:16:14.581Z,1.90
2023-04-28T02:18:43.144Z,2.00
2023-04-28T02:21:16.667Z,2.28
2023-04-28T02:23:46.064Z,2.55
2023-04-28T02:26:13.516Z,2.67
2023-04-28T02:28:42.328Z,3.38
2023-04-28T02:31:11.557Z,3.10
2023-04-28T02:33:39.048Z,3.35
2023-04-28T02:36:07.628Z,3.33
2023-04-28T02:38:35.253Z,3.33
2023-04-28T02:41:05.105Z,3.10
2023-04-28T02:43:32.692Z,2.97
2023-04-28T02:46:00.444Z,3.10
2023-04-28T02:48:28.019Z,3.30
2023-04-28T02:50:55.684Z,14.13
2023-04-28T02:53:23.362Z,3.17
2023-04-28T02:55:51.090Z,3.42
2023-04-28T02:58:18.970Z,3.63
2023-04-28T03:00:47.991Z,3.30
2023-04-28T03:03:16.397Z,3.35
2023-04-28T03:05:44.098Z,3.25
2023-04-28T03:08:11.612Z,3.10
2023-04-28T03:10:39.016Z,3.40
2023-04-28T03:13:06.419Z,3.03
2023-04-28T03:15:33.893Z,3.20
2023-04-28T03:18:01.566Z,3.78
2023-04-28T03:20:29.649Z,3.58
2023-04-28T03:22:57.290Z,3.53
2023-04-28T03:25:24.747Z,3.97
2023-04-28T03:27:52.747Z,3.42
2023-04-28T03:30:21.190Z,3.58
2023-04-28T03:32:48.566Z,3.50
2023-04-28T03:35:16.588Z,3.70
2023-04-28T03:37:44.705Z,4.00
2023-04-28T03:40:12.661Z,4.18
2023-04-28T03:43:00.200Z,3.90
2023-04-28T03:45:35.600Z,3.78
2023-04-28T03:48:03.044Z,3.50
2023-04-28T03:50:31.414Z,3.80
2023-04-28T03:52:58.764Z,3.70
2023-04-28T03:55:27.147Z,3.95
2023-04-28T03:57:54.556Z,3.60
2023-04-28T04:00:22.038Z,3.80
2023-04-28T04:02:52.776Z,3.90
2023-04-28T04:05:20.762Z,3.90
2023-04-28T04:07:48.216Z,4.20
2023-04-28T04:10:15.827Z,3.50
2023-04-28T04:12:45.157Z,3.40
2023-04-28T04:15:15.025Z,3.53
2023-04-28T04:17:44.423Z,3.60
2023-04-28T04:20:12.108Z,3.92
2023-04-28T04:22:39.583Z,4.20
2023-04-28T04:25:07.290Z,4.03
2023-04-28T04:27:36.226Z,4.38
2023-04-28T04:30:03.998Z,4.30
2023-04-28T04:32:31.445Z,3.83
2023-04-28T04:34:58.839Z,4.45
2023-04-28T04:37:26.346Z,3.85
2023-04-28T04:40:03.644Z,4.00
2023-04-28T04:42:36.787Z,4.00
2023-04-28T04:45:09.301Z,3.78
2023-04-28T04:47:37.595Z,4.28
2023-04-28T04:50:06.097Z,4.03
2023-04-28T04:52:33.644Z,4.50
2023-04-28T04:55:01.072Z,4.18
2023-04-28T04:57:31.716Z,3.85
2023-04-28T05:00:02.192Z,4.75
2023-04-28T05:02:31.298Z,3.97
2023-04-28T05:05:08.281Z,4.25
2023-04-28T05:07:41.062Z,4.28
2023-04-28T05:10:11.503Z,3.72
2023-04-28T05:12:39.124Z,4.05
2023-04-28T05:15:08.109Z,3.95
2023-04-28T05:17:38.953Z,3.70
2023-04-28T05:20:07.181Z,3.50
2023-04-28T05:22:37.571Z,4.53
2023-04-28T05:25:05.360Z,3.95
2023-04-28T05:27:33.744Z,4.15
2023-04-28T05:30:01.087Z,4.40
2023-04-28T05:32:30.348Z,4.43
2023-04-28T05:34:57.705Z,4.25
2023-04-28T05:37:25.147Z,3.75
2023-04-28T05:39:52.655Z,3.85
2023-04-28T05:42:20.044Z,4.10
2023-04-28T05:44:47.384Z,4.15
2023-04-28T05:47:14.837Z,3.83
2023-04-28T05:49:42.253Z,4.22
2023-04-28T05:52:09.752Z,4.07
2023-04-28T05:54:37.162Z,4.35
2023-04-28T05:57:05.059Z,4.25
2023-04-28T05:59:33.124Z,4.10
2023-04-28T06:02:01.402Z,4.13
2023-04-28T06:04:29.280Z,4.75
2023-04-28T06:06:57.092Z,4.65
2023-04-28T06:09:24.631Z,4.22
2023-04-28T06:11:53.682Z,4.45
2023-04-28T06:14:23.077Z,4.68
2023-04-28T06:16:51.267Z,4.60
2023-04-28T06:19:21.584Z,4.38
2023-04-28T06:21:53.126Z,4.40
2023-04-28T06:24:23.440Z,3.85
2023-04-28T06:26:54.163Z,4.38
2023-04-28T06:29:23.832Z,4.97
2023-04-28T06:31:52.915Z,4.70
2023-04-28T06:34:20.584Z,4.18
2023-04-28T06:36:48.115Z,4.85
2023-04-28T06:39:15.538Z,4.57
2023-04-28T06:41:43.251Z,4.60
2023-04-28T06:44:11.955Z,5.03
2023-04-28T06:46:39.503Z,4.65
2023-04-28T06:49:06.880Z,4.43
2023-04-28T06:51:34.551Z,4.45
2023-04-28T06:54:02.013Z,4.70
2023-04-28T06:56:29.568Z,5.00
2023-04-28T06:58:57.511Z,4.57
2023-04-28T07:01:27.536Z,4.20
2023-04-28T07:03:55.103Z,5.13
2023-04-28T07:06:23.015Z,4.60
2023-04-28T07:08:50.458Z,4.60
2023-04-28T07:11:17.793Z,4.30
2023-04-28T07:13:49.298Z,3.60
2023-04-28T07:16:16.823Z,3.58
2023-04-28T07:18:44.312Z,3.70
2023-04-28T07:21:11.896Z,3.60
2023-04-28T07:23:40.419Z,3.72
2023-04-28T07:26:08.289Z,3.13
2023-04-28T07:28:35.820Z,3.10
2023-04-28T07:31:03.176Z,3.17
2023-04-28T07:33:30.553Z,3.13
2023-04-28T07:35:57.984Z,3.65
2023-04-28T07:38:25.420Z,3.50
2023-04-28T07:40:53.452Z,3.00
2023-04-28T07:43:21.166Z,2.20
2023-04-28T07:45:50.046Z,2.08
2023-04-28T07:48:17.593Z,1.90
2023-04-28T07:50:45.018Z,2.38
2023-04-28T07:53:12.549Z,2.33
2023-04-28T07:55:42.167Z,2.40
2023-04-28T07:58:09.715Z,2.70
2023-04-28T08:00:37.546Z,2.75
2023-04-28T08:03:06.254Z,2.90
2023-04-28T08:05:33.783Z,2.50
2023-04-28T08:08:01.222Z,2.40
2023-04-28T08:10:28.980Z,2.47
2023-04-28T08:12:56.334Z,2.50
2023-04-28T08:15:23.768Z,2.22
2023-04-28T08:17:51.902Z,2.00
2023-04-28T08:20:24.658Z,1.95
2023-04-28T08:22:52.327Z,1.83
2023-04-28T08:25:19.610Z,1.73
2023-04-28T08:27:47.134Z,1.67
2023-04-28T08:30:14.543Z,1.60
2023-04-28T08:32:42.044Z,1.50
2023-04-28T08:35:10.155Z,1.92
2023-04-28T08:37:37.613Z,1.90
2023-04-28T08:40:10.063Z,1.15
2023-04-28T08:42:38.240Z,1.58
2023-04-28T08:45:06.138Z,1.45
2023-04-28T08:47:36.680Z,1.30
2023-04-28T08:50:06.025Z,1.58
2023-04-28T08:52:34.481Z,1.60
2023-04-28T08:55:07.131Z,2.10
2023-04-28T08:57:44.812Z,1.77
2023-04-28T09:00:12.912Z,1.08
2023-04-28T09:02:42.658Z,1.40
2023-04-28T09:05:14.678Z,1.75
2023-04-28T09:07:47.891Z,1.80
2023-04-28T09:10:22.454Z,1.98
2023-04-28T09:12:54.579Z,2.40
2023-04-28T09:15:37.735Z,2.40
2023-04-28T09:18:06.966Z,1.95
2023-04-28T09:20:36.203Z,2.65
2023-04-28T09:23:20.981Z,1.33
2023-04-28T09:26:01.686Z,1.98
2023-04-28T09:28:29.681Z,1.90
2023-04-28T09:30:57.398Z,1.73
2023-04-28T09:33:25.287Z,1.83
2023-04-28T09:35:53.465Z,1.90
2023-04-28T09:38:24.063Z,1.40
2023-04-28T09:41:01.561Z,2.03
2023-04-28T09:43:34.073Z,1.77
2023-04-28T09:46:03.337Z,1.75
2023-04-28T09:48:33.105Z,1.45
2023-04-28T09:51:02.692Z,2.50
2023-04-28T09:53:30.940Z,2.05
2023-04-28T09:56:01.466Z,1.80
2023-04-28T09:58:30.651Z,2.17
2023-04-28T10:00:59.762Z,2.00
2023-04-28T10:03:30.064Z,1.80
2023-04-28T10:05:59.069Z,2.45
2023-04-28T10:08:27.991Z,2.28
2023-04-28T10:10:56.967Z,2.25
2023-04-28T10:13:24.824Z,2.40
2023-04-28T10:15:55.528Z,2.20
2023-04-28T10:18:24.389Z,2.10
2023-04-28T10:21:03.842Z,2.17
2023-04-28T10:23:54.512Z,1.70
2023-04-28T10:26:27.520Z,1.88
2023-04-28T10:28:55.158Z,1.95
2023-04-28T10:31:23.223Z,1.77
2023-04-28T10:33:50.835Z,1.80
2023-04-28T10:36:59.395Z,1.30
2023-04-28T10:39:27.047Z,1.23
2023-04-28T10:41:54.476Z,0.98
2023-04-28T10:44:31.092Z,1.27
2023-04-28T10:47:13.972Z,1.05
2023-04-28T10:49:57.654Z,1.10
2023-04-28T10:52:48.672Z,1.05
2023-04-28T10:55:37.101Z,1.60
2023-04-28T10:58:27.456Z,1.35
2023-04-28T11:00:54.960Z,1.30
2023-04-28T11:03:52.330Z,1.10
2023-04-28T11:06:28.265Z,1.52
2023-04-28T11:08:57.897Z,1.67
2023-04-28T11:11:27.164Z,1.60
2023-04-28T11:14:15.765Z,1.10
2023-04-28T11:16:50.611Z,1.52
2023-04-28T11:19:23.382Z,1.38
2023-04-28T11:21:52.364Z,1.58
2023-04-28T11:24:20.015Z,1.50
2023-04-28T11:26:47.559Z,1.45
2023-04-28T11:29:15.672Z,1.58
2023-04-28T11:31:51.413Z,1.63
2023-04-28T11:34:21.752Z,1.58
2023-04-28T11:36:49.136Z,1.35
2023-04-28T11:39:16.652Z,1.60
2023-04-28T11:41:45.132Z,1.83
2023-04-28T11:44:16.377Z,2.33
2023-04-28T11:46:56.195Z,2.67
2023-04-28T11:49:24.683Z,2.75
2023-04-28T11:51:52.569Z,2.90
2023-04-28T11:54:24.594Z,3.63
2023-04-28T11:59:31.790Z,3.13
2023-04-28T12:02:03.479Z,3.10
2023-04-28T12:04:32.237Z,4.10
2023-04-28T12:07:07.223Z,3.75
2023-04-28T12:09:35.526Z,3.60
2023-04-28T12:12:08.578Z,3.67
2023-04-28T12:14:54.080Z,3.53
2023-04-28T12:17:29.876Z,3.97
2023-04-28T12:19:59.016Z,3.17
2023-04-28T12:22:27.309Z,4.03
2023-04-28T12:25:12.680Z,3.20
2023-04-28T12:27:41.198Z,3.47
2023-04-28T12:30:20.828Z,3.47
2023-04-28T12:32:48.561Z,4.32
2023-04-28T12:35:16.194Z,4.35
2023-04-28T12:37:44.481Z,4.07
2023-04-28T12:40:12.449Z,3.72
2023-04-28T12:42:39.878Z,4.00
2023-04-28T12:45:08.863Z,4.10
2023-04-28T12:47:37.866Z,3.65
2023-04-28T12:50:06.833Z,3.75
2023-04-28T12:52:35.662Z,4.10
2023-04-28T12:55:04.095Z,3.80
2023-04-28T12:57:39.060Z,3.88
2023-04-28T13:00:08.347Z,4.07
2023-04-28T13:02:36.077Z,4.57
2023-04-28T13:05:03.823Z,4.18
2023-04-28T13:07:31.777Z,4.32
2023-04-28T13:09:59.513Z,4.88
2023-04-28T13:12:26.906Z,5.25
2023-04-28T13:14:54.295Z,6.30
2023-04-28T13:17:21.706Z,5.57
2023-04-28T13:19:49.216Z,5.03
2023-04-28T13:22:16.799Z,4.38
2023-04-28T13:24:44.345Z,4.40
2023-04-28T13:27:11.948Z,4.65
2023-04-28T13:29:39.890Z,5.53
2023-04-28T13:32:07.595Z,6.28
2023-04-28T13:34:35.172Z,6.35
2023-04-28T13:37:02.552Z,6.00
2023-04-28T13:39:29.914Z,6.63
2023-04-28T13:41:57.308Z,7.00
2023-04-28T13:44:24.844Z,7.65
2023-04-28T13:46:53.459Z,7.00
2023-04-28T13:49:23.715Z,7.35
2023-04-28T13:51:51.084Z,7.45
2023-04-28T13:54:18.449Z,6.63
2023-04-28T13:56:46.199Z,7.13
2023-04-28T13:59:13.665Z,8.45
2023-04-28T14:01:41.047Z,9.25
2023-04-28T14:04:08.654Z,8.65
2023-04-28T14:06:37.377Z,7.55
2023-04-28T14:09:04.900Z,7.57
2023-04-28T14:11:32.234Z,9.25
2023-04-28T14:13:59.696Z,9.45
2023-04-28T14:16:27.591Z,8.48
2023-04-28T14:18:55.649Z,9.77
2023-04-28T14:21:23.157Z,8.10
2023-04-28T14:23:50.552Z,7.88
2023-04-28T14:26:18.719Z,8.57
2023-04-28T14:28:46.138Z,7.72
2023-04-28T14:31:13.568Z,9.32
2023-04-28T14:33:41.330Z,8.32
2023-04-28T14:36:09.238Z,8.50
2023-04-28T14:38:38.259Z,8.20
2023-04-28T14:41:06.912Z,8.52
2023-04-28T14:43:35.040Z,8.20
2023-04-28T14:46:02.669Z,8.90
2023-04-28T14:48:32.370Z,8.70
2023-04-28T14:50:59.761Z,9.32
2023-04-28T14:53:27.397Z,10.45
2023-04-28T14:55:59.439Z,10.73
2023-04-28T14:58:35.303Z,9.63
2023-04-28T15:01:03.367Z,9.48
2023-04-28T15:03:30.902Z,10.50
2023-04-28T15:06:02.756Z,8.88
2023-04-28T15:08:30.254Z,9.52
2023-04-28T15:10:57.628Z,8.15
2023-04-28T15:13:27.860Z,9.20
2023-04-28T15:15:55.247Z,9.27
2023-04-28T15:18:22.683Z,9.07
2023-04-28T15:20:51.396Z,9.82
2023-04-28T15:23:19.833Z,10.00
2023-04-28T15:25:48.025Z,10.90
2023-04-28T15:28:15.577Z,10.30
2023-04-28T15:30:43.414Z,9.98
2023-04-28T15:33:17.328Z,9.07
2023-04-28T15:35:44.957Z,9.70
2023-04-28T15:38:12.933Z,8.90
2023-04-28T15:40:40.753Z,9.95
2023-04-28T15:43:08.344Z,11.27
2023-04-28T15:45:36.466Z,9.02
2023-04-28T15:48:06.242Z,9.60
2023-04-28T15:50:34.005Z,9.05
2023-04-28T15:53:01.473Z,10.05
2023-04-28T15:55:28.847Z,9.93
2023-04-28T15:57:56.340Z,9.05
2023-04-28T16:00:23.656Z,8.48
2023-04-28T16:02:53.552Z,8.95
2023-04-28T16:05:22.761Z,8.65
2023-04-28T16:07:50.362Z,8.18
2023-04-28T16:10:17.888Z,8.43
2023-04-28T16:12:45.348Z,8.73
2023-04-28T16:15:13.622Z,8.82
2023-04-28T16:17:41.946Z,9.07
2023-04-28T16:20:10.904Z,8.02
2023-04-28T16:22:39.792Z,8.95
2023-04-28T16:25:07.931Z,9.25
2023-04-28T16:27:36.291Z,8.25
2023-04-28T16:30:07.221Z,8.20
2023-04-28T16:32:38.910Z,8.23
2023-04-28T16:35:11.786Z,8.75
2023-04-28T16:37:43.595Z,8.07
2023-04-28T16:40:12.288Z,8.00
2023-04-28T16:42:39.710Z,8.50
2023-04-28T16:45:07.514Z,7.88
2023-04-28T16:47:34.859Z,8.20
2023-04-28T16:50:02.287Z,8.05
2023-04-28T16:52:29.862Z,7.68
2023-04-28T16:54:57.233Z,8.25
2023-04-28T16:57:25.466Z,7.38
2023-04-28T16:59:53.224Z,7.63
2023-04-28T17:02:20.703Z,7.72
2023-04-28T17:04:48.125Z,7.97
2023-04-28T17:07:18.457Z,7.90
2023-04-28T17:09:45.766Z,7.75
2023-04-28T17:12:13.268Z,7.00
2023-04-28T17:14:40.885Z,7.63
2023-04-28T17:17:08.313Z,7.28
2023-04-28T17:19:35.780Z,6.95
2023-04-28T17:22:03.183Z,7.10
2023-04-28T17:24:30.830Z,7.28
2023-04-28T17:26:58.225Z,7.60
2023-04-28T17:29:26.115Z,7.53
2023-04-28T17:31:53.776Z,7.93
2023-04-28T17:34:21.310Z,7.95
2023-04-28T17:36:48.762Z,6.85
2023-04-28T17:39:16.745Z,7.80
2023-04-28T17:41:45.152Z,7.88
2023-04-28T17:44:12.829Z,7.32
2023-04-28T17:46:40.663Z,7.05
2023-04-28T17:49:08.686Z,7.30
2023-04-28T17:51:38.018Z,6.70
2023-04-28T17:54:09.290Z,6.80
2023-04-28T17:56:38.432Z,6.47
2023-04-28T17:59:07.364Z,7.10
2023-04-28T18:01:35.287Z,7.38
2023-04-28T18:04:02.642Z,6.85
2023-04-28T18:06:30.110Z,8.63
2023-04-28T18:08:57.523Z,7.20
2023-04-28T18:11:27.133Z,7.57
2023-04-28T18:13:54.572Z,8.38
2023-04-28T18:16:22.080Z,7.78
2023-04-28T18:18:49.444Z,7.30
2023-04-28T18:21:17.004Z,8.25
2023-04-28T18:23:44.771Z,9.25
2023-04-28T18:26:12.076Z,8.18
2023-04-28T18:28:39.418Z,8.38
2023-04-28T18:31:07.104Z,8.63
2023-04-28T18:33:35.506Z,7.30
2023-04-28T18:36:07.758Z,7.35
2023-04-28T18:38:36.541Z,7.13
2023-04-28T18:41:15.030Z,6.55
2023-04-28T18:43:43.475Z,6.10
2023-04-28T18:46:10.941Z,5.68
2023-04-28T18:48:38.517Z,5.35
2023-04-28T18:51:06.425Z,4.93
2023-04-28T18:53:33.749Z,5.50
2023-04-28T18:56:03.282Z,5.97
2023-04-28T18:58:31.159Z,6.47
2023-04-28T19:00:58.533Z,5.22
2023-04-28T19:03:26.314Z,5.50
2023-04-28T19:05:54.215Z,4.95
2023-04-28T19:08:21.492Z,5.43
2023-04-28T19:10:49.210Z,4.70
2023-04-28T19:13:16.619Z,4.57
2023-04-28T19:15:43.979Z,4.43
2023-04-28T19:18:12.535Z,4.13
2023-04-28T19:20:42.118Z,4.05
2023-04-28T19:23:09.715Z,4.30
2023-04-28T19:25:37.731Z,3.95
2023-04-28T19:28:05.146Z,4.13
2023-04-28T19:30:32.538Z,4.30
2023-04-28T19:32:59.918Z,4.68
2023-04-28T19:35:27.418Z,4.60
2023-04-28T19:37:55.880Z,5.15
2023-04-28T19:40:23.475Z,5.45
2023-04-28T19:42:51.572Z,5.68
2023-04-28T19:45:19.176Z,5.25
2023-04-28T19:47:46.536Z,5.35
2023-04-28T19:50:13.951Z,5.53
2023-04-28T19:52:41.778Z,5.40
2023-04-28T19:55:09.578Z,5.78
2023-04-28T19:57:37.287Z,5.10
2023-04-28T20:00:05.203Z,4.70
2023-04-28T20:02:35.676Z,4.60
2023-04-28T20:05:03.914Z,5.13
2023-04-28T20:07:31.595Z,3.97
2023-04-28T20:09:59.683Z,3.80
2023-04-28T20:12:26.982Z,3.65
2023-04-28T20:14:54.479Z,4.00
2023-04-28T20:17:21.989Z,4.13
2023-04-28T20:19:49.719Z,3.30
2023-04-28T20:22:17.206Z,3.50
2023-04-28T20:24:44.614Z,3.72
2023-04-28T20:27:12.773Z,3.50
2023-04-28T20:29:40.199Z,3.95
2023-04-28T20:32:07.628Z,4.00
2023-04-28T20:34:36.366Z,3.63
2023-04-28T20:37:04.311Z,3.72
2023-04-28T20:39:31.694Z,4.00
2023-04-28T20:42:01.084Z,3.55
2023-04-28T20:44:28.428Z,4.03
2023-04-28T20:46:55.865Z,3.92
2023-04-28T20:49:24.520Z,3.83
2023-04-28T20:51:52.023Z,4.45
2023-04-28T20:54:19.480Z,4.28
2023-04-28T20:56:46.855Z,4.38
2023-04-28T20:59:14.636Z,4.07
2023-04-28T21:01:42.177Z,4.53
2023-04-28T21:04:09.999Z,4.22
2023-04-28T21:06:37.447Z,4.10
2023-04-28T21:09:04.788Z,4.15
2023-04-28T21:11:32.279Z,3.90
2023-04-28T21:13:59.883Z,4.20
2023-04-28T21:16:27.310Z,4.57
2023-04-28T21:18:58.205Z,4.18
2023-04-28T21:21:25.720Z,4.50
2023-04-28T21:23:53.327Z,4.47
2023-04-28T21:26:21.921Z,4.40
2023-04-28T21:28:50.361Z,3.97
2023-04-28T21:31:18.254Z,4.38
2023-04-28T21:33:45.670Z,3.88
2023-04-28T21:36:13.507Z,3.70
2023-04-28T21:38:40.854Z,3.78
2023-04-28T21:41:08.797Z,3.88
2023-04-28T21:43:36.111Z,3.97
2023-04-28T21:46:03.635Z,4.00
2023-04-28T21:48:30.999Z,3.88
2023-04-28T21:50:59.455Z,3.80
2023-04-28T21:53:26.820Z,4.18
2023-04-28T21:55:54.202Z,3.63
2023-04-28T21:58:21.542Z,3.53
2023-04-28T22:00:49.265Z,3.70
2023-04-28T22:03:16.844Z,3.53
2023-04-28T22:05:45.075Z,3.65
2023-04-28T22:08:13.564Z,4.32
2023-04-28T22:10:41.322Z,3.75
2023-04-28T22:13:09.188Z,3.83
2023-04-28T22:15:36.714Z,3.60
2023-04-28T22:18:04.788Z,4.13
2023-04-28T22:20:32.532Z,3.58
2023-04-28T22:23:00.316Z,3.78
2023-04-28T22:25:27.694Z,4.00
2023-04-28T22:27:55.088Z,4.35
2023-04-28T22:30:25.026Z,3.97
2023-04-28T22:32:53.593Z,4.50
2023-04-28T22:35:21.100Z,4.18
2023-04-28T22:37:48.700Z,3.67
2023-04-28T22:40:16.096Z,4.68
2023-04-28T22:42:43.599Z,4.13
2023-04-28T22:45:11.889Z,4.50
2023-04-28T22:47:43.551Z,4.18
2023-04-28T22:50:11.664Z,4.20
2023-04-28T22:52:39.124Z,4.05
2023-04-28T22:55:06.832Z,4.22
2023-04-28T22:57:34.559Z,4.22
2023-04-28T23:00:05.957Z,4.53
2023-04-28T23:02:33.863Z,4.85
2023-04-28T23:05:01.420Z,4.55
2023-04-28T23:07:28.881Z,4.65
2023-04-28T23:09:56.203Z,4.15
2023-04-28T23:12:23.510Z,4.22
2023-04-28T23:14:50.868Z,4.85
2023-04-28T23:17:18.258Z,4.60
2023-04-28T23:19:45.826Z,4.45
2023-04-28T23:22:13.381Z,4.30
2023-04-28T23:24:40.870Z,4.70
2023-04-28T23:27:08.393Z,4.80
2023-04-28T23:29:36.173Z,5.20
2023-04-28T23:32:04.447Z,5.07
2023-04-28T23:34:31.914Z,5.00
2023-04-28T23:36:59.373Z,6.00
2023-04-28T23:39:29.817Z,6.50
2023-04-28T23:41:57.123Z,5.93
2023-04-28T23:44:24.471Z,6.78
2023-04-28T23:46:51.830Z,6.50
2023-04-28T23:49:20.798Z,6.70
2023-04-28T23:51:48.116Z,6.07
2023-04-28T23:54:15.458Z,5.97
2023-04-28T23:56:42.777Z,6.53
2023-04-28T23:59:10.193Z,6.13
